Nordic Orion — 3FDS9 — position and weather

sailwx.info

Track history (hours):
 
Tides and Currents Weather Stations Pressure Air Temp Water Temp Dewpoint Dewpoint Depression Visibility Wind Speed Wind Dir Waves Ship Positions

Nordic Orion

Last reported at 2018-Jun-24 21:17 UTC. Time now 2018-Jun-25 00:44 UTC.
Position N 37°11' E 004°01'.

Length 225 m; draft 14.3 m.

Type: Ship. MMSI: 373437000.

Date/timePositionNaut miles runAvg speedWind from/ knotsBaromVisibWave heightAir tempDewpointWater temp
2018-Jun-24 21:17N 37°11' E 004°01'610.3
2018-Jun-24 20:41N 37°11' E 003°53'210.2
2018-Jun-24 20:30N 37°10' E 003°51'510.1
2018-Jun-24 19:59N 37°10' E 003°44'5 9.9
2018-Jun-24 19:30N 37°09' E 003°38'5 9.6
2018-Jun-24 19:00N 37°08' E 003°32'5 9.6
2018-Jun-24 18:30N 37°08' E 003°26'5 9.5
2018-Jun-24 18:00N 37°07' E 003°20'5 9.5
2018-Jun-24 17:30N 37°06' E 003°14'5 9.6
2018-Jun-24 17:00N 37°06' E 003°08'510.0
2018-Jun-24 16:30N 37°05' E 003°02'510.3
2018-Jun-24 16:00N 37°04' E 002°56'510.4
2018-Jun-24 15:30N 37°03' E 002°49'510.4
2018-Jun-24 15:00N 37°02' E 002°43'510.3
2018-Jun-24 14:30N 37°01' E 002°37'510.4
2018-Jun-24 14:00N 37°01' E 002°30'510.4
2018-Jun-24 13:30N 36°60' E 002°24'1110.4
2018-Jun-24 12:27N 36°58' E 002°10'510.7
2018-Jun-24 11:59N 36°57' E 002°04'1211.0
2018-Jun-24 10:51N 36°55' E 001°49'2810.9
2018-Jun-24 08:16N 36°50' E 001°14'410.6
2018-Jun-24 07:55N 36°49' E 001°09'511.0
2018-Jun-24 07:27N 36°48' E 001°03'911.2
2018-Jun-24 06:37N 36°47' E 000°52'110.9
2018-Jun-24 06:30N 36°47' E 000°50'510.8
2018-Jun-24 06:00N 36°46' E 000°44'610.8
2018-Jun-24 05:29N 36°45' E 000°37'610.6
2018-Jun-24 04:57N 36°44' E 000°30'510.8
2018-Jun-24 04:30N 36°43' E 000°24'2210.9
2018-Jun-24 02:29N 36°39' W 000°03'510.7
2018-Jun-24 02:00N 36°38' W 000°10'610.7
2018-Jun-24 01:27N 36°37' W 000°17'510.7
2018-Jun-24 00:57N 36°36' W 000°23'510.7
2018-Jun-24 00:27N 36°35' W 000°30'510.4
2018-Jun-24 00:00N 36°35' W 000°36'510.1
2018-Jun-23 23:30N 36°34' W 000°42'510.3
2018-Jun-23 23:00N 36°33' W 000°48'510.4
2018-Jun-23 22:30N 36°32' W 000°55'1410.5
2018-Jun-23 21:10N 36°30' W 001°12'210.9
2018-Jun-23 21:00N 36°29' W 001°14'611.4
2018-Jun-23 20:27N 36°28' W 001°21'511.5
2018-Jun-23 20:00N 36°27' W 001°28'811.3
2018-Jun-23 19:18N 36°26' W 001°38'39410.3
2018-Jun-22 04:55N 37°27' W 009°44'511.1
2018-Jun-22 04:30N 37°31' W 009°46'511.0
2018-Jun-22 04:01N 37°37' W 009°47'611.0
2018-Jun-22 03:30N 37°42' W 009°49'610.9
2018-Jun-22 02:55N 37°48' W 009°51'511.1
2018-Jun-22 02:31N 37°53' W 009°52'611.1
2018-Jun-22 02:01N 37°58' W 009°54'611.0
2018-Jun-22 01:31N 38°03' W 009°55'611.2
2018-Jun-22 01:01N 38°09' W 009°57'611.4
2018-Jun-22 00:31N 38°14' W 009°58'611.5
2018-Jun-22 00:01N 38°20' W 010°00'611.2
2018-Jun-21 23:31N 38°25' W 010°02'611.2
2018-Jun-21 23:01N 38°31' W 010°03'611.1
2018-Jun-21 22:30N 38°36' W 010°05'611.0
2018-Jun-21 22:00N 38°42' W 010°06'610.8
2018-Jun-21 21:29N 38°47' W 010°06'510.7
2018-Jun-21 21:00N 38°53' W 010°06'510.7
2018-Jun-21 20:30N 38°58' W 010°07'510.5
2018-Jun-21 20:00N 39°03' W 010°07'510.5
2018-Jun-21 19:30N 39°08' W 010°07'510.4
2018-Jun-21 19:01N 39°13' W 010°06'510.8
2018-Jun-21 18:30N 39°19' W 010°06'611.1
2018-Jun-21 18:00N 39°24' W 010°06'510.8
2018-Jun-21 17:30N 39°30' W 010°06'510.8
2018-Jun-21 17:00N 39°35' W 010°07'510.6
2018-Jun-21 16:30N 39°41' W 010°07'52310.6
2018-Jun-19 15:06N 47°59' W 006°31'212.4
2018-Jun-19 14:55N 48°02' W 006°29'4911.6
2018-Jun-19 10:40N 48°45' W 005°54'210.2
2018-Jun-19 10:28N 48°47' W 005°52'5 9.7
2018-Jun-19 09:57N 48°51' W 005°49'6 8.9
2018-Jun-19 09:18N 48°55' W 005°42'3 9.0
2018-Jun-19 09:00N 48°57' W 005°39'8 8.8
2018-Jun-19 08:04N 49°01' W 005°28'1 8.9
2018-Jun-19 07:59N 49°01' W 005°27'5 9.0
2018-Jun-19 07:24N 49°04' W 005°20'5 9.1
2018-Jun-19 06:49N 49°07' W 005°13'4 9.3
2018-Jun-19 06:25N 49°09' W 005°08'1410.0
2018-Jun-19 05:01N 49°16' W 004°50'610.9
2018-Jun-19 04:28N 49°19' W 004°42'511.4
2018-Jun-19 04:00N 49°22' W 004°35'611.8
2018-Jun-19 03:31N 49°25' W 004°28'2211.7
2018-Jun-19 01:35N 49°35' W 003°57'311.0
2018-Jun-19 01:17N 49°37' W 003°53'2010.0
2018-Jun-18 23:17N 49°47' W 003°26'3 9.0
2018-Jun-18 23:00N 49°48' W 003°23'4 8.8
2018-Jun-18 22:30N 49°50' W 003°17'4 8.7
2018-Jun-18 22:00N 49°52' W 003°11'4 8.7
2018-Jun-18 21:30N 49°54' W 003°05'5 9.2
2018-Jun-18 20:56N 49°57' W 002°58'4 9.5
2018-Jun-18 20:30N 49°59' W 002°52'510.2
2018-Jun-18 20:00N 50°00' W 002°45'1811.7
2018-Jun-18 18:27N 50°06' W 002°18'913.3
2018-Jun-18 17:44N 50°09' W 002°04'313.7
2018-Jun-18 17:30N 50°10' W 001°59'1713.5
2018-Jun-18 16:13N 50°15' W 001°33'412.6
2018-Jun-18 15:56N 50°16' W 001°27'1211.6
2018-Jun-18 14:53N 50°19' W 001°09'410.5
2018-Jun-18 14:29N 50°20' W 001°03'5 9.6
2018-Jun-18 13:56N 50°21' W 000°55'4 8.5
2018-Jun-18 13:31N 50°22' W 000°49'4 7.7
2018-Jun-18 12:56N 50°24' W 000°43'3 7.4
2018-Jun-18 12:30N 50°25' W 000°38'4 7.4
2018-Jun-18 11:59N 50°26' W 000°32'4 7.6
2018-Jun-18 11:30N 50°27' W 000°27'4 8.2
2018-Jun-18 11:00N 50°28' W 000°20'21 9.8
2018-Jun-18 08:49N 50°34' E 000°12'411.3
2018-Jun-18 08:29N 50°35' E 000°17'611.6
2018-Jun-18 08:01N 50°37' E 000°26'611.8
2018-Jun-18 07:31N 50°38' E 000°35'611.4
2018-Jun-18 07:01N 50°40' E 000°43'611.4
2018-Jun-18 06:31N 50°44' E 000°50'510.9
2018-Jun-18 06:00N 50°48' E 000°56'510.4
2018-Jun-18 05:29N 50°51' E 001°03'5 9.8
2018-Jun-18 05:00N 50°54' E 001°09'5 9.2
2018-Jun-18 04:30N 50°57' E 001°14'4 8.3
2018-Jun-18 04:00N 50°60' E 001°19'4 7.5
2018-Jun-18 03:30N 51°02' E 001°24'4 7.3
2018-Jun-18 03:01N 51°05' E 001°28'4 7.2
2018-Jun-18 02:31N 51°07' E 001°33'4 7.6
2018-Jun-18 02:01N 51°09' E 001°37'4 8.4
2018-Jun-18 01:31N 51°12' E 001°42'5 9.4
2018-Jun-18 01:01N 51°16' E 001°47'510.8
2018-Jun-18 00:30N 51°20' E 001°51'611.7
2018-Jun-18 00:01N 51°25' E 001°56'612.0
2018-Jun-17 23:30N 51°30' E 002°02'612.3
2018-Jun-17 23:00N 51°35' E 002°08'612.3
2018-Jun-17 22:30N 51°40' E 002°15'612.0
2018-Jun-17 21:59N 51°44' E 002°21'511.3
2018-Jun-17 21:30N 51°48' E 002°27'32 9.3
2018-Jun-17 18:03N 52°18' E 002°48'1 8.7
2018-Jun-17 17:58N 52°18' E 002°48'4 8.5
2018-Jun-17 17:30N 52°22' E 002°51'4 8.5
2018-Jun-17 16:59N 52°26' E 002°54'4 8.6
2018-Jun-17 16:30N 52°30' E 002°57'5 8.9
2018-Jun-17 15:59N 52°34' E 003°00'405 9.8
2018-Jun-15 22:36N 57°41' E 010°43'11 0.5
2018-Jun-15 01:04N 57°35' E 011°01'110.7
2018-Jun-15 00:59N 57°35' E 011°03'510.6
2018-Jun-15 00:30N 57°33' E 011°12'510.3
2018-Jun-15 00:00N 57°31' E 011°20'510.0
2018-Jun-14 23:30N 57°27' E 011°27'510.6
2018-Jun-14 23:00N 57°22' E 011°29'510.3
2018-Jun-14 22:30N 57°17' E 011°33'510.2
2018-Jun-14 22:00N 57°12' E 011°36'  
Track history (hours):
 
Tides and Currents Weather Stations Pressure Air Temp Water Temp Dewpoint Dewpoint Depression Visibility Wind Speed Wind Dir Waves Ship Positions

Nordic Orion

Last reported at 2018-Jun-24 21:17 UTC. Time now 2018-Jun-25 00:44 UTC.
Position N 37°11' E 004°01'.

Length 225 m; draft 14.3 m.

Type: Ship. MMSI: 373437000.

Date/timePositionNaut miles runAvg speedWind from/ knotsBaromVisibWave heightAir tempDewpointWater temp
2018-Jun-24 21:17N 37°11' E 004°01'610.3
2018-Jun-24 20:41N 37°11' E 003°53'210.2
2018-Jun-24 20:30N 37°10' E 003°51'510.1
2018-Jun-24 19:59N 37°10' E 003°44'5 9.9
2018-Jun-24 19:30N 37°09' E 003°38'5 9.6
2018-Jun-24 19:00N 37°08' E 003°32'5 9.6
2018-Jun-24 18:30N 37°08' E 003°26'5 9.5
2018-Jun-24 18:00N 37°07' E 003°20'5 9.5
2018-Jun-24 17:30N 37°06' E 003°14'5 9.6
2018-Jun-24 17:00N 37°06' E 003°08'510.0
2018-Jun-24 16:30N 37°05' E 003°02'510.3
2018-Jun-24 16:00N 37°04' E 002°56'510.4
2018-Jun-24 15:30N 37°03' E 002°49'510.4
2018-Jun-24 15:00N 37°02' E 002°43'510.3
2018-Jun-24 14:30N 37°01' E 002°37'510.4
2018-Jun-24 14:00N 37°01' E 002°30'510.4
2018-Jun-24 13:30N 36°60' E 002°24'1110.4
2018-Jun-24 12:27N 36°58' E 002°10'510.7
2018-Jun-24 11:59N 36°57' E 002°04'1211.0
2018-Jun-24 10:51N 36°55' E 001°49'2810.9
2018-Jun-24 08:16N 36°50' E 001°14'410.6
2018-Jun-24 07:55N 36°49' E 001°09'511.0
2018-Jun-24 07:27N 36°48' E 001°03'911.2
2018-Jun-24 06:37N 36°47' E 000°52'110.9
2018-Jun-24 06:30N 36°47' E 000°50'510.8
2018-Jun-24 06:00N 36°46' E 000°44'610.8
2018-Jun-24 05:29N 36°45' E 000°37'610.6
2018-Jun-24 04:57N 36°44' E 000°30'510.8
2018-Jun-24 04:30N 36°43' E 000°24'2210.9
2018-Jun-24 02:29N 36°39' W 000°03'510.7
2018-Jun-24 02:00N 36°38' W 000°10'610.7
2018-Jun-24 01:27N 36°37' W 000°17'510.7
2018-Jun-24 00:57N 36°36' W 000°23'510.7
2018-Jun-24 00:27N 36°35' W 000°30'510.4
2018-Jun-24 00:00N 36°35' W 000°36'510.1
2018-Jun-23 23:30N 36°34' W 000°42'510.3
2018-Jun-23 23:00N 36°33' W 000°48'510.4
2018-Jun-23 22:30N 36°32' W 000°55'1410.5
2018-Jun-23 21:10N 36°30' W 001°12'210.9
2018-Jun-23 21:00N 36°29' W 001°14'611.4
2018-Jun-23 20:27N 36°28' W 001°21'511.5
2018-Jun-23 20:00N 36°27' W 001°28'811.3
2018-Jun-23 19:18N 36°26' W 001°38'39410.3
2018-Jun-22 04:55N 37°27' W 009°44'511.1
2018-Jun-22 04:30N 37°31' W 009°46'511.0
2018-Jun-22 04:01N 37°37' W 009°47'611.0
2018-Jun-22 03:30N 37°42' W 009°49'610.9
2018-Jun-22 02:55N 37°48' W 009°51'511.1
2018-Jun-22 02:31N 37°53' W 009°52'611.1
2018-Jun-22 02:01N 37°58' W 009°54'611.0
2018-Jun-22 01:31N 38°03' W 009°55'611.2
2018-Jun-22 01:01N 38°09' W 009°57'611.4
2018-Jun-22 00:31N 38°14' W 009°58'611.5
2018-Jun-22 00:01N 38°20' W 010°00'611.2
2018-Jun-21 23:31N 38°25' W 010°02'611.2
2018-Jun-21 23:01N 38°31' W 010°03'611.1
2018-Jun-21 22:30N 38°36' W 010°05'611.0
2018-Jun-21 22:00N 38°42' W 010°06'610.8
2018-Jun-21 21:29N 38°47' W 010°06'510.7
2018-Jun-21 21:00N 38°53' W 010°06'510.7
2018-Jun-21 20:30N 38°58' W 010°07'510.5
2018-Jun-21 20:00N 39°03' W 010°07'510.5
2018-Jun-21 19:30N 39°08' W 010°07'510.4
2018-Jun-21 19:01N 39°13' W 010°06'510.8
2018-Jun-21 18:30N 39°19' W 010°06'611.1
2018-Jun-21 18:00N 39°24' W 010°06'510.8
2018-Jun-21 17:30N 39°30' W 010°06'510.8
2018-Jun-21 17:00N 39°35' W 010°07'510.6
2018-Jun-21 16:30N 39°41' W 010°07'52310.6
2018-Jun-19 15:06N 47°59' W 006°31'212.4
2018-Jun-19 14:55N 48°02' W 006°29'4911.6
2018-Jun-19 10:40N 48°45' W 005°54'210.2
2018-Jun-19 10:28N 48°47' W 005°52'5 9.7
2018-Jun-19 09:57N 48°51' W 005°49'6 8.9
2018-Jun-19 09:18N 48°55' W 005°42'3 9.0
2018-Jun-19 09:00N 48°57' W 005°39'8 8.8
2018-Jun-19 08:04N 49°01' W 005°28'1 8.9
2018-Jun-19 07:59N 49°01' W 005°27'5 9.0
2018-Jun-19 07:24N 49°04' W 005°20'5 9.1
2018-Jun-19 06:49N 49°07' W 005°13'4 9.3
2018-Jun-19 06:25N 49°09' W 005°08'1410.0
2018-Jun-19 05:01N 49°16' W 004°50'610.9
2018-Jun-19 04:28N 49°19' W 004°42'511.4
2018-Jun-19 04:00N 49°22' W 004°35'611.8
2018-Jun-19 03:31N 49°25' W 004°28'2211.7
2018-Jun-19 01:35N 49°35' W 003°57'311.0
2018-Jun-19 01:17N 49°37' W 003°53'2010.0
2018-Jun-18 23:17N 49°47' W 003°26'3 9.0
2018-Jun-18 23:00N 49°48' W 003°23'4 8.8
2018-Jun-18 22:30N 49°50' W 003°17'4 8.7
2018-Jun-18 22:00N 49°52' W 003°11'4 8.7
2018-Jun-18 21:30N 49°54' W 003°05'5 9.2
2018-Jun-18 20:56N 49°57' W 002°58'4 9.5
2018-Jun-18 20:30N 49°59' W 002°52'510.2
2018-Jun-18 20:00N 50°00' W 002°45'1811.7
2018-Jun-18 18:27N 50°06' W 002°18'913.3
2018-Jun-18 17:44N 50°09' W 002°04'313.7
2018-Jun-18 17:30N 50°10' W 001°59'1713.5
2018-Jun-18 16:13N 50°15' W 001°33'412.6
2018-Jun-18 15:56N 50°16' W 001°27'1211.6
2018-Jun-18 14:53N 50°19' W 001°09'410.5
2018-Jun-18 14:29N 50°20' W 001°03'5 9.6
2018-Jun-18 13:56N 50°21' W 000°55'4 8.5
2018-Jun-18 13:31N 50°22' W 000°49'4 7.7
2018-Jun-18 12:56N 50°24' W 000°43'3 7.4
2018-Jun-18 12:30N 50°25' W 000°38'4 7.4
2018-Jun-18 11:59N 50°26' W 000°32'4 7.6
2018-Jun-18 11:30N 50°27' W 000°27'4 8.2
2018-Jun-18 11:00N 50°28' W 000°20'21 9.8
2018-Jun-18 08:49N 50°34' E 000°12'411.3
2018-Jun-18 08:29N 50°35' E 000°17'611.6
2018-Jun-18 08:01N 50°37' E 000°26'611.8
2018-Jun-18 07:31N 50°38' E 000°35'611.4
2018-Jun-18 07:01N 50°40' E 000°43'611.4
2018-Jun-18 06:31N 50°44' E 000°50'510.9
2018-Jun-18 06:00N 50°48' E 000°56'510.4
2018-Jun-18 05:29N 50°51' E 001°03'5 9.8
2018-Jun-18 05:00N 50°54' E 001°09'5 9.2
2018-Jun-18 04:30N 50°57' E 001°14'4 8.3
2018-Jun-18 04:00N 50°60' E 001°19'4 7.5
2018-Jun-18 03:30N 51°02' E 001°24'4 7.3
2018-Jun-18 03:01N 51°05' E 001°28'4 7.2
2018-Jun-18 02:31N 51°07' E 001°33'4 7.6
2018-Jun-18 02:01N 51°09' E 001°37'4 8.4
2018-Jun-18 01:31N 51°12' E 001°42'5 9.4
2018-Jun-18 01:01N 51°16' E 001°47'510.8
2018-Jun-18 00:30N 51°20' E 001°51'611.7
2018-Jun-18 00:01N 51°25' E 001°56'612.0
2018-Jun-17 23:30N 51°30' E 002°02'612.3
2018-Jun-17 23:00N 51°35' E 002°08'612.3
2018-Jun-17 22:30N 51°40' E 002°15'612.0
2018-Jun-17 21:59N 51°44' E 002°21'511.3
2018-Jun-17 21:30N 51°48' E 002°27'32 9.3
2018-Jun-17 18:03N 52°18' E 002°48'1 8.7
2018-Jun-17 17:58N 52°18' E 002°48'4 8.5
2018-Jun-17 17:30N 52°22' E 002°51'4 8.5
2018-Jun-17 16:59N 52°26' E 002°54'4 8.6
2018-Jun-17 16:30N 52°30' E 002°57'5 8.9
2018-Jun-17 15:59N 52°34' E 003°00'405 9.8
2018-Jun-15 22:36N 57°41' E 010°43'11 0.5
2018-Jun-15 01:04N 57°35' E 011°01'110.7
2018-Jun-15 00:59N 57°35' E 011°03'510.6
2018-Jun-15 00:30N 57°33' E 011°12'510.3
2018-Jun-15 00:00N 57°31' E 011°20'510.0
2018-Jun-14 23:30N 57°27' E 011°27'510.6
2018-Jun-14 23:00N 57°22' E 011°29'510.3
2018-Jun-14 22:30N 57°17' E 011°33'510.2
2018-Jun-14 22:00N 57°12' E 011°36'  

Dump ship's entire track history